Time;durP1;ratioP1;P1;durP2;ratioP2;P2;SDS_P1;SDS_P2;PMS_P1;PMS_P2;Temp;Humidity;BMP_temperature;BMP_pressure;BME280_temperature;BME280_humidity;BME280_pressure;Samples;Min_cycle;Max_cycle;Signal;HPM_P1;HPM_P2
2022/06/04 00:01:27;;;;;;;0.70;0.70;;;22.10;65.80;;;;;;4970152;28;20039;-21
2022/06/04 00:03:52;;;;;;;0.57;0.57;;;22.10;65.60;;;;;;4964823;28;20169;-20
2022/06/04 00:06:18;;;;;;;1.20;0.80;;;22.10;65.70;;;;;;4974289;28;20047;-21
2022/06/04 00:08:43;;;;;;;0.63;0.63;;;22.10;65.70;;;;;;4974644;28;20057;-20
2022/06/04 00:16:37;;;;;;;;;;;22.10;65.80;;;;;;4973359;28;20419;-24
2022/06/04 00:19:03;;;;;;;1.40;0.68;;;22.10;65.90;;;;;;4975019;28;19914;-20
2022/06/04 00:21:29;;;;;;;0.60;0.60;;;22.10;65.70;;;;;;4974169;28;20054;-21
2022/06/04 00:23:54;;;;;;;0.43;0.40;;;22.10;65.80;;;;;;4973121;28;20115;-20
2022/06/04 00:26:20;;;;;;;0.50;0.50;;;22.10;65.60;;;;;;4974551;28;20043;-20
2022/06/04 00:28:46;;;;;;;0.75;0.50;;;22.10;65.90;;;;;;4976592;28;20570;-22
2022/06/04 00:31:11;;;;;;;0.60;0.60;;;22.10;65.80;;;;;;4977587;28;20121;-20
2022/06/04 00:33:38;;;;;;;1.25;0.50;;;22.10;65.70;;;;;;4980172;28;20515;-21
2022/06/04 00:36:04;;;;;;;1.15;0.38;;;22.10;65.80;;;;;;4994167;28;20058;-20
2022/06/04 00:38:30;;;;;;;0.40;0.40;;;22.00;65.80;;;;;;4973470;28;20054;-20
2022/06/04 00:41:36;;;;;;;0.50;0.50;;;22.00;65.80;;;;;;4978964;28;20105;-20
2022/06/04 00:44:11;;;;;;;1.55;0.63;;;22.10;65.80;;;;;;4977496;28;20448;-20
2022/06/04 00:46:39;;;;;;;0.57;0.57;;;22.10;65.90;;;;;;4978833;28;20563;-21
2022/06/04 00:49:06;;;;;;;0.60;0.60;;;22.00;65.60;;;;;;4979054;28;20051;-21
2022/06/04 00:51:31;;;;;;;0.47;0.47;;;22.10;65.80;;;;;;4978586;28;20476;-20
2022/06/04 00:53:57;;;;;;;1.40;0.60;;;22.10;65.90;;;;;;4975091;28;20117;-21
2022/06/04 00:56:44;;;;;;;0.40;0.40;;;22.10;65.70;;;;;;4986434;28;20046;-20
2022/06/04 00:59:28;;;;;;;0.40;0.40;;;22.10;65.70;;;;;;4978235;28;20125;-20
2022/06/04 01:01:57;;;;;;;;;;;22.00;65.60;;;;;;4977318;28;20526;-20
2022/06/04 01:04:49;;;;;;;0.45;0.45;;;22.10;65.70;;;;;;4968714;28;19957;-24
2022/06/04 01:07:49;;;;;;;0.47;0.47;;;22.10;65.70;;;;;;4974736;28;20400;-20
2022/06/04 01:10:49;;;;;;;1.15;0.70;;;22.00;65.70;;;;;;4975527;28;20419;-22
2022/06/04 01:13:44;;;;;;;0.68;0.60;;;22.00;65.70;;;;;;4969995;28;20053;-21
2022/06/04 01:16:12;;;;;;;0.47;0.47;;;22.00;65.60;;;;;;4976288;28;20412;-21
2022/06/04 01:19:21;;;;;;;1.17;0.60;;;22.00;65.60;;;;;;4974403;28;20061;-20
2022/06/04 01:22:12;;;;;;;1.30;0.60;;;22.00;65.60;;;;;;4939139;29;20039;-21
2022/06/04 01:24:50;;;;;;;0.40;0.40;;;22.00;65.60;;;;;;4978237;28;20428;-22
2022/06/04 01:27:28;;;;;;;0.68;0.40;;;22.00;65.60;;;;;;4970534;28;20053;-20
2022/06/04 01:30:07;;;;;;;0.50;0.50;;;22.00;65.70;;;;;;4976716;28;20039;-20
2022/06/04 01:32:55;;;;;;;0.60;0.60;;;22.00;65.70;;;;;;4978214;28;20093;-20
2022/06/04 01:35:55;;;;;;;0.65;0.65;;;22.00;65.70;;;;;;4975453;28;20055;-21
2022/06/04 01:38:32;;;;;;;0.57;0.57;;;22.00;65.70;;;;;;4957877;28;20043;-20
2022/06/04 01:41:03;;;;;;;0.65;0.65;;;22.00;65.70;;;;;;4964381;28;20436;-20
2022/06/04 01:43:39;;;;;;;0.68;0.52;;;22.00;65.60;;;;;;4967475;28;20043;-20
2022/06/04 01:46:33;;;;;;;0.40;0.40;;;22.00;65.50;;;;;;4975163;28;20083;-20
2022/06/04 01:49:12;;;;;;;0.60;0.60;;;22.00;65.60;;;;;;4973130;28;20110;-20
2022/06/04 01:51:38;;;;;;;0.68;0.40;;;22.00;65.60;;;;;;4964124;28;20050;-20
2022/06/04 01:54:15;;;;;;;1.15;0.65;;;22.00;65.30;;;;;;4970511;28;20051;-26
2022/06/04 01:56:46;;;;;;;0.55;0.55;;;22.00;65.40;;;;;;4973388;28;20066;-21
2022/06/04 01:59:19;;;;;;;1.52;0.60;;;22.00;65.50;;;;;;4951597;28;20532;-21
2022/06/04 02:01:45;;;;;;;0.57;0.57;;;22.00;65.50;;;;;;4969078;28;20050;-21
2022/06/04 02:04:13;;;;;;;0.50;0.50;;;22.00;65.50;;;;;;4951595;28;20047;-21
2022/06/04 02:07:29;;;;;;;0.75;0.50;;;22.00;65.50;;;;;;4976938;28;20035;-21
2022/06/04 02:09:36;;;;;;;0.95;0.70;;;22.00;65.20;;;;;;4976239;28;20046;-20
2022/06/04 02:12:02;;;;;;;0.50;0.50;;;22.00;65.40;;;;;;4955948;28;20186;-21
2022/06/04 02:14:27;;;;;;;0.50;0.50;;;22.00;65.50;;;;;;4974869;28;20097;-22
2022/06/04 02:16:56;;;;;;;0.35;0.35;;;22.00;65.50;;;;;;4977358;28;20039;-21
2022/06/04 02:19:22;;;;;;;0.52;0.52;;;22.00;65.40;;;;;;4974579;28;20121;-21
2022/06/04 02:21:48;;;;;;;2.65;0.60;;;22.00;65.40;;;;;;4971963;28;20039;-21
2022/06/04 02:24:13;;;;;;;0.55;0.55;;;22.00;65.30;;;;;;4979189;28;20051;-20
2022/06/04 02:26:41;;;;;;;0.52;0.52;;;22.00;65.40;;;;;;5007453;28;20046;-22
2022/06/04 02:29:06;;;;;;;0.50;0.50;;;22.00;65.40;;;;;;4969258;28;20054;-22
2022/06/04 02:31:47;;;;;;;0.50;0.50;;;22.00;65.30;;;;;;4973057;28;20047;-20
2022/06/04 02:34:34;;;;;;;0.60;0.60;;;22.00;65.30;;;;;;4971726;28;20125;-21
2022/06/04 02:37:09;;;;;;;0.60;0.60;;;22.00;65.20;;;;;;4977188;28;20059;-22
2022/06/04 02:39:43;;;;;;;0.57;0.57;;;22.00;65.20;;;;;;4972924;28;20063;-21
2022/06/04 02:42:20;;;;;;;0.70;0.70;;;22.00;65.30;;;;;;4975906;28;20054;-21
2022/06/04 02:44:52;;;;;;;0.80;0.80;;;22.00;65.10;;;;;;4972578;28;20051;-22
2022/06/04 02:47:20;;;;;;;0.60;0.60;;;22.00;65.20;;;;;;4981523;28;20081;-21
2022/06/04 02:49:53;;;;;;;0.50;0.50;;;22.00;65.10;;;;;;4991355;28;20074;-23
2022/06/04 02:52:18;;;;;;;0.93;0.63;;;22.00;65.10;;;;;;4972313;28;20054;-22
2022/06/04 02:54:50;;;;;;;2.17;0.98;;;22.00;65.10;;;;;;4955480;28;20046;-21
2022/06/04 02:57:16;;;;;;;0.70;0.70;;;22.00;65.10;;;;;;4971731;28;20058;-21
2022/06/04 02:59:42;;;;;;;0.80;0.80;;;22.00;65.00;;;;;;4971960;28;20049;-21
2022/06/04 03:02:08;;;;;;;0.60;0.60;;;22.00;65.00;;;;;;4968469;28;20078;-21
2022/06/04 03:04:45;;;;;;;1.65;0.68;;;22.00;65.00;;;;;;4983598;28;20499;-21
2022/06/04 03:07:11;;;;;;;0.88;0.88;;;22.00;65.00;;;;;;4969965;28;20051;-21
2022/06/04 03:09:38;;;;;;;5.88;0.80;;;22.00;65.10;;;;;;4975050;28;20045;-22
2022/06/04 03:12:04;;;;;;;0.70;0.70;;;21.90;65.10;;;;;;4978302;28;20046;-21
2022/06/04 03:14:29;;;;;;;0.70;0.70;;;21.90;65.00;;;;;;4973859;28;20070;-21
2022/06/04 03:16:55;;;;;;;1.42;0.50;;;21.90;65.00;;;;;;4969596;28;20078;-22
2022/06/04 03:19:21;;;;;;;0.60;0.60;;;22.00;65.00;;;;;;4973580;28;20198;-21
2022/06/04 03:21:46;;;;;;;0.65;0.65;;;21.90;64.90;;;;;;4974750;28;20038;-26
2022/06/04 03:24:13;;;;;;;0.55;0.55;;;21.90;64.90;;;;;;4972683;28;20055;-20
2022/06/04 03:26:38;;;;;;;1.95;0.70;;;22.00;64.90;;;;;;4973769;28;20038;-22
2022/06/04 03:29:04;;;;;;;0.70;0.70;;;22.00;64.80;;;;;;4973509;28;20047;-22
2022/06/04 03:31:30;;;;;;;0.80;0.73;;;22.00;64.80;;;;;;4969324;28;20595;-20
2022/06/04 03:33:56;;;;;;;0.60;0.60;;;22.00;64.80;;;;;;4973050;28;20065;-21
2022/06/04 03:36:21;;;;;;;1.02;0.73;;;22.00;64.80;;;;;;4976361;28;20038;-21
2022/06/04 03:38:48;;;;;;;0.43;0.43;;;21.90;64.80;;;;;;4969531;28;20043;-20
2022/06/04 03:41:14;;;;;;;0.70;0.70;;;21.90;64.80;;;;;;4974066;28;20042;-21
2022/06/04 03:43:39;;;;;;;0.60;0.60;;;21.90;64.80;;;;;;4988895;28;20054;-25
2022/06/04 03:46:05;;;;;;;0.70;0.70;;;21.90;64.80;;;;;;4969063;28;20043;-20
2022/06/04 03:48:31;;;;;;;0.63;0.63;;;21.90;65.00;;;;;;4971016;28;20059;-23
2022/06/04 03:50:56;;;;;;;1.13;0.63;;;21.90;64.90;;;;;;4972387;28;20122;-21
2022/06/04 03:53:22;;;;;;;0.70;0.70;;;21.90;65.00;;;;;;4973098;28;20472;-21
2022/06/04 03:55:47;;;;;;;0.60;0.60;;;21.90;65.00;;;;;;4973943;28;20420;-22
2022/06/04 03:58:13;;;;;;;0.63;0.63;;;21.90;65.10;;;;;;4974909;28;20105;-20
2022/06/04 04:00:39;;;;;;;0.82;0.82;;;21.90;65.00;;;;;;4969113;28;20047;-21
2022/06/04 04:03:11;;;;;;;0.70;0.70;;;21.90;65.00;;;;;;4975242;28;20046;-20
2022/06/04 04:05:40;;;;;;;0.75;0.75;;;21.90;65.00;;;;;;4972677;28;20047;-21
2022/06/04 04:08:07;;;;;;;0.73;0.73;;;21.90;65.10;;;;;;4967576;28;20050;-21
2022/06/04 04:10:33;;;;;;;0.60;0.60;;;21.90;65.00;;;;;;4979837;28;20440;-23
2022/06/04 04:12:59;;;;;;;0.70;0.70;;;21.90;65.00;;;;;;4975455;28;20505;-20
2022/06/04 04:15:25;;;;;;;0.50;0.50;;;21.90;65.00;;;;;;4973744;28;20050;-21
2022/06/04 04:17:50;;;;;;;1.35;0.82;;;21.90;65.00;;;;;;4955791;28;20432;-22
2022/06/04 04:20:22;;;;;;;0.90;0.90;;;21.90;65.00;;;;;;4960497;28;20053;-20
2022/06/04 04:22:47;;;;;;;0.70;0.70;;;21.90;65.00;;;;;;4970801;28;20057;-21
2022/06/04 04:25:14;;;;;;;1.48;0.70;;;21.90;65.00;;;;;;4975288;28;20055;-22
2022/06/04 04:27:39;;;;;;;0.82;0.82;;;21.90;65.00;;;;;;4975477;28;20051;-22
2022/06/04 04:30:07;;;;;;;0.85;0.85;;;21.90;64.80;;;;;;4973286;28;20045;-20
2022/06/04 04:32:33;;;;;;;0.60;0.60;;;21.90;64.80;;;;;;4975397;28;20051;-21
2022/06/04 04:34:59;;;;;;;1.30;1.05;;;21.90;64.80;;;;;;4974764;28;20045;-21
2022/06/04 04:37:25;;;;;;;0.77;0.70;;;21.90;64.70;;;;;;4972973;28;20049;-22
2022/06/04 04:39:51;;;;;;;0.73;0.73;;;21.90;64.70;;;;;;4975833;28;20098;-21
2022/06/04 04:42:16;;;;;;;1.20;0.70;;;21.90;64.80;;;;;;4967153;28;20070;-21
2022/06/04 04:44:42;;;;;;;1.00;0.60;;;21.90;64.80;;;;;;4974112;28;20488;-20
2022/06/04 04:47:08;;;;;;;0.57;0.57;;;21.90;64.80;;;;;;4973670;28;20057;-20
2022/06/04 04:49:34;;;;;;;0.60;0.60;;;21.90;64.80;;;;;;4975819;28;20105;-22
2022/06/04 04:51:59;;;;;;;0.60;0.60;;;21.90;64.90;;;;;;4974171;28;20046;-20
2022/06/04 04:54:26;;;;;;;0.82;0.82;;;21.90;64.80;;;;;;4973497;28;20062;-21
2022/06/04 04:56:52;;;;;;;1.00;1.00;;;21.90;64.90;;;;;;4975434;28;20046;-21
2022/06/04 04:59:17;;;;;;;0.60;0.60;;;21.90;64.90;;;;;;4972604;28;20047;-21
2022/06/04 05:01:43;;;;;;;0.50;0.50;;;21.90;64.80;;;;;;4974564;28;20038;-21
2022/06/04 05:04:08;;;;;;;0.90;0.90;;;21.90;64.80;;;;;;4974763;28;20049;-20
2022/06/04 05:06:34;;;;;;;0.60;0.60;;;21.90;64.80;;;;;;4976003;28;20039;-20
2022/06/04 05:09:00;;;;;;;0.60;0.60;;;21.90;64.80;;;;;;4973948;28;20553;-21
2022/06/04 05:11:30;;;;;;;0.60;0.60;;;21.90;64.80;;;;;;4968176;28;20045;-22
2022/06/04 05:13:56;;;;;;;0.68;0.68;;;21.90;64.70;;;;;;4955318;28;20055;-21
2022/06/04 05:16:23;;;;;;;0.57;0.57;;;21.90;64.80;;;;;;4960132;28;20047;-21
2022/06/04 05:18:49;;;;;;;0.60;0.60;;;21.90;64.80;;;;;;4973924;28;20077;-20
2022/06/04 05:21:41;;;;;;;0.75;0.75;;;21.90;64.80;;;;;;4974192;28;20051;-22
2022/06/04 05:24:09;;;;;;;0.75;0.75;;;21.90;64.70;;;;;;4973343;28;20055;-21
2022/06/04 05:26:34;;;;;;;0.60;0.60;;;21.90;64.70;;;;;;4972981;28;20305;-20
2022/06/04 05:29:00;;;;;;;0.65;0.60;;;21.90;64.70;;;;;;4974222;28;20313;-21
2022/06/04 05:31:25;;;;;;;0.80;0.80;;;21.90;64.80;;;;;;4977652;28;20079;-22
2022/06/04 05:33:51;;;;;;;0.63;0.63;;;21.90;64.70;;;;;;4977727;28;20047;-21
2022/06/04 05:36:17;;;;;;;0.95;0.95;;;21.90;64.80;;;;;;4975328;28;20046;-21
2022/06/04 05:38:42;;;;;;;0.70;0.70;;;21.90;64.80;;;;;;4977942;28;20047;-21
2022/06/04 05:41:10;;;;;;;0.50;0.50;;;21.90;64.80;;;;;;4977975;28;20138;-21
2022/06/04 05:43:38;;;;;;;0.70;0.70;;;21.90;64.90;;;;;;4971700;28;20055;-22
2022/06/04 05:46:06;;;;;;;0.70;0.70;;;21.90;64.80;;;;;;4977231;28;20113;-20
2022/06/04 05:48:32;;;;;;;0.70;0.70;;;21.90;64.80;;;;;;4977265;28;20050;-20
2022/06/04 05:50:58;;;;;;;0.70;0.70;;;21.80;64.80;;;;;;4976814;28;20812;-21
2022/06/04 05:53:24;;;;;;;0.52;0.52;;;21.90;64.90;;;;;;4969270;28;20057;-21
2022/06/04 05:55:50;;;;;;;0.50;0.50;;;21.90;64.90;;;;;;4978165;28;20051;-20
2022/06/04 05:58:15;;;;;;;0.77;0.77;;;21.90;64.80;;;;;;4973417;28;20088;-21
2022/06/04 06:00:41;;;;;;;0.60;0.60;;;21.90;64.80;;;;;;4977390;28;20046;-21
2022/06/04 06:03:07;;;;;;;1.00;0.75;;;21.90;64.70;;;;;;4976561;28;20397;-20
2022/06/04 06:05:32;;;;;;;0.70;0.70;;;21.90;65.00;;;;;;4992505;28;20046;-20
2022/06/04 06:07:58;;;;;;;1.98;0.73;;;21.90;64.80;;;;;;4977209;28;20053;-21
2022/06/04 06:10:24;;;;;;;0.70;0.70;;;21.90;64.80;;;;;;4975106;28;20061;-21
2022/06/04 06:12:50;;;;;;;1.05;0.80;;;21.90;64.80;;;;;;4972750;28;20043;-21
2022/06/04 06:15:15;;;;;;;0.60;0.60;;;21.90;64.90;;;;;;4969985;28;20055;-22
2022/06/04 06:17:41;;;;;;;0.57;0.57;;;21.90;64.80;;;;;;4972985;28;20059;-22
2022/06/04 06:20:08;;;;;;;0.50;0.50;;;21.90;64.90;;;;;;4972501;28;20050;-25
2022/06/04 06:22:34;;;;;;;0.60;0.60;;;21.90;64.90;;;;;;4974494;28;20070;-20
2022/06/04 06:25:04;;;;;;;3.40;0.70;;;21.90;64.80;;;;;;4973113;28;20061;-20
2022/06/04 06:27:29;;;;;;;0.85;0.70;;;21.90;64.90;;;;;;4966258;28;20039;-21
2022/06/04 06:29:55;;;;;;;0.73;0.73;;;21.90;64.90;;;;;;4974354;28;20161;-21
2022/06/04 06:32:21;;;;;;;0.90;0.90;;;21.90;65.10;;;;;;4971205;28;20069;-20
2022/06/04 06:34:47;;;;;;;1.42;0.80;;;21.90;64.80;;;;;;4973251;28;20539;-23
2022/06/04 06:37:12;;;;;;;0.60;0.60;;;21.90;64.80;;;;;;4975382;28;20415;-20
2022/06/04 06:39:38;;;;;;;0.93;0.93;;;21.90;64.80;;;;;;4971870;28;20088;-21
2022/06/04 06:42:04;;;;;;;0.60;0.60;;;21.90;64.80;;;;;;4969369;28;20130;-20
2022/06/04 06:44:30;;;;;;;0.60;0.60;;;21.90;64.80;;;;;;4628574;28;10000463;-22
2022/06/04 06:46:55;;;;;;;2.05;0.70;;;22.00;64.90;;;;;;4969363;28;20310;-24
2022/06/04 06:49:23;;;;;;;1.20;0.85;;;21.90;64.90;;;;;;4972527;28;20392;-21
2022/06/04 06:51:49;;;;;;;0.60;0.60;;;21.90;65.10;;;;;;4967355;28;20076;-21
2022/06/04 06:54:16;;;;;;;0.60;0.60;;;21.90;65.20;;;;;;4965864;28;20047;-22
2022/06/04 06:56:42;;;;;;;0.93;0.80;;;21.90;65.60;;;;;;4973061;28;20045;-20
2022/06/04 06:59:08;;;;;;;1.10;1.00;;;21.90;65.70;;;;;;4964883;28;20101;-21
2022/06/04 07:01:34;;;;;;;0.70;0.70;;;21.90;65.80;;;;;;4971208;28;20043;-21
2022/06/04 07:04:01;;;;;;;1.05;0.95;;;22.00;66.00;;;;;;4969732;28;20058;-20
2022/06/04 07:06:34;;;;;;;1.00;1.00;;;22.00;66.10;;;;;;4964457;28;20070;-22
2022/06/04 07:09:00;;;;;;;1.50;1.40;;;22.00;66.30;;;;;;4970749;28;20058;-21
2022/06/04 07:11:25;;;;;;;1.40;1.30;;;22.00;66.90;;;;;;4968804;28;20044;-22
2022/06/04 07:13:52;;;;;;;1.50;1.40;;;22.00;67.00;;;;;;4970591;28;20516;-22
2022/06/04 07:16:17;;;;;;;1.80;1.70;;;22.00;67.30;;;;;;4966855;28;20051;-23
2022/06/04 07:18:43;;;;;;;1.50;1.40;;;22.10;67.60;;;;;;4965382;28;20508;-21
2022/06/04 07:21:09;;;;;;;2.25;1.70;;;22.10;67.70;;;;;;4965528;28;20058;-21
2022/06/04 07:23:36;;;;;;;1.90;1.80;;;22.20;68.10;;;;;;4970615;28;20065;-21
2022/06/04 07:26:02;;;;;;;2.03;1.88;;;22.20;68.70;;;;;;4971152;28;20595;-22
2022/06/04 07:28:27;;;;;;;2.00;1.90;;;22.20;68.60;;;;;;4970908;28;20046;-22
2022/06/04 07:30:54;;;;;;;2.33;2.15;;;22.20;68.80;;;;;;4970967;28;20118;-21
2022/06/04 07:33:20;;;;;;;1.80;1.70;;;22.30;68.60;;;;;;4966501;28;20051;-20
2022/06/04 07:35:50;;;;;;;1.85;1.75;;;22.30;68.80;;;;;;4968532;28;20089;-21
2022/06/04 07:38:16;;;;;;;3.53;1.77;;;22.30;68.90;;;;;;4968525;28;20451;-21
2022/06/04 07:40:41;;;;;;;3.63;1.92;;;22.30;68.60;;;;;;4966445;28;20487;-22
2022/06/04 07:43:07;;;;;;;1.48;1.38;;;22.30;68.80;;;;;;4969081;28;20050;-20
2022/06/04 07:45:36;;;;;;;1.38;1.38;;;22.40;68.40;;;;;;4967952;28;20055;-20
2022/06/04 07:48:02;;;;;;;1.80;1.70;;;22.40;68.00;;;;;;4970814;28;20054;-21
2022/06/04 07:50:28;;;;;;;1.58;1.48;;;22.40;69.30;;;;;;4968672;28;20058;-22
2022/06/04 07:52:54;;;;;;;1.98;1.88;;;22.40;68.50;;;;;;4962709;28;20126;-21
2022/06/04 07:55:19;;;;;;;1.67;1.58;;;22.40;68.40;;;;;;4968024;28;20101;-20
2022/06/04 07:57:45;;;;;;;2.20;1.98;;;22.50;68.60;;;;;;4970388;28;20047;-22
2022/06/04 08:00:11;;;;;;;2.13;2.03;;;22.50;68.80;;;;;;4968268;28;20050;-20
2022/06/04 08:02:37;;;;;;;1.95;1.85;;;22.40;69.20;;;;;;4968487;28;20109;-21
2022/06/04 08:05:02;;;;;;;2.42;2.33;;;22.50;68.70;;;;;;4969210;28;20050;-21
2022/06/04 08:07:28;;;;;;;2.95;2.28;;;22.50;70.20;;;;;;4963990;28;20050;-21
2022/06/04 08:09:54;;;;;;;2.20;2.10;;;22.60;70.00;;;;;;4968994;28;20051;-22
2022/06/04 08:12:19;;;;;;;2.33;2.15;;;22.60;69.80;;;;;;4968959;28;20508;-21
2022/06/04 08:14:48;;;;;;;2.67;2.33;;;22.60;70.10;;;;;;4966875;28;20062;-20
2022/06/04 08:17:13;;;;;;;1.80;1.70;;;22.60;69.80;;;;;;4967699;28;20190;-20
2022/06/04 08:19:39;;;;;;;2.50;1.83;;;22.60;69.40;;;;;;4971445;28;20078;-21
2022/06/04 08:22:05;;;;;;;2.20;2.08;;;22.60;69.20;;;;;;4966389;28;20043;-21
2022/06/04 08:24:31;;;;;;;1.90;1.80;;;22.60;69.70;;;;;;4963851;28;20319;-22
2022/06/04 08:27:00;;;;;;;2.85;2.40;;;22.70;69.50;;;;;;4955140;28;20645;-23
2022/06/04 08:29:31;;;;;;;1.80;1.70;;;22.70;69.60;;;;;;4955267;28;20050;-24
2022/06/04 08:31:57;;;;;;;2.50;2.30;;;22.70;69.50;;;;;;4956576;28;20051;-23
2022/06/04 08:34:23;;;;;;;3.95;2.22;;;22.80;69.30;;;;;;4954578;28;20075;-22
2022/06/04 08:36:49;;;;;;;2.88;2.17;;;22.80;68.70;;;;;;4952724;28;20047;-22
2022/06/04 08:39:14;;;;;;;1.92;1.83;;;22.80;69.10;;;;;;4954099;28;20081;-22
2022/06/04 08:41:46;;;;;;;2.53;1.98;;;22.80;68.40;;;;;;4955361;28;20698;-21
2022/06/04 08:44:15;;;;;;;2.15;2.05;;;22.80;68.90;;;;;;4953180;28;20121;-23
2022/06/04 08:47:06;;;;;;;2.20;2.10;;;22.90;69.20;;;;;;4954792;28;20053;-23
2022/06/04 08:49:35;;;;;;;1.90;1.80;;;22.90;69.10;;;;;;4954600;28;20074;-24
2022/06/04 08:52:16;;;;;;;3.55;1.70;;;23.00;68.80;;;;;;4958254;28;20122;-22
2022/06/04 08:57:53;;;;;;;1.80;1.70;;;23.00;68.30;;;;;;4958180;28;20129;-22
2022/06/04 09:00:40;;;;;;;2.22;1.55;;;23.00;68.40;;;;;;4956955;28;20723;-23
2022/06/04 09:03:10;;;;;;;1.70;1.60;;;23.00;68.00;;;;;;4947973;28;20047;-23
2022/06/04 09:05:57;;;;;;;2.08;1.63;;;23.00;67.80;;;;;;4949558;28;20421;-22
2022/06/04 09:08:41;;;;;;;2.20;1.77;;;23.10;68.00;;;;;;4957974;28;20101;-23
2022/06/04 09:11:11;;;;;;;1.40;1.20;;;23.10;68.30;;;;;;4958023;28;20059;-22
2022/06/04 09:13:55;;;;;;;1.75;1.65;;;23.10;67.60;;;;;;4940909;28;20058;-22
2022/06/04 09:16:25;;;;;;;1.65;1.55;;;23.20;67.70;;;;;;4956043;28;20145;-23
2022/06/04 09:18:50;;;;;;;1.70;1.60;;;23.20;67.40;;;;;;4958711;28;20527;-22
2022/06/04 09:21:16;;;;;;;2.13;1.70;;;23.20;67.30;;;;;;4939359;28;20712;-22
2022/06/04 09:23:45;;;;;;;1.30;1.30;;;23.30;67.90;;;;;;4958173;28;20062;-22
2022/06/04 09:26:14;;;;;;;1.85;1.75;;;23.30;68.00;;;;;;4956793;28;20074;-25
2022/06/04 09:28:58;;;;;;;1.90;1.80;;;23.40;67.70;;;;;;4957330;28;20530;-23
2022/06/04 09:31:26;;;;;;;;;;;23.40;67.60;;;;;;4957987;28;20050;-22
2022/06/04 09:33:57;;;;;;;1.50;1.40;;;23.40;67.20;;;;;;4958519;28;20238;-23
2022/06/04 09:36:28;;;;;;;2.25;1.45;;;23.50;67.10;;;;;;4956419;28;20054;-23
2022/06/04 09:38:59;;;;;;;1.75;1.65;;;23.40;66.80;;;;;;4958051;28;20062;-23
2022/06/04 09:41:26;;;;;;;1.40;1.40;;;23.40;66.70;;;;;;4956845;28;20393;-23
2022/06/04 09:44:08;;;;;;;1.67;1.67;;;23.50;66.70;;;;;;4956460;28;20084;-22
2022/06/04 09:46:34;;;;;;;1.58;1.42;;;23.50;66.50;;;;;;4956903;28;20059;-22
2022/06/04 09:49:00;;;;;;;1.95;1.75;;;23.50;66.30;;;;;;4955752;28;20536;-23
2022/06/04 09:51:27;;;;;;;2.00;1.80;;;23.50;66.90;;;;;;4957881;28;20046;-23
2022/06/04 09:54:03;;;;;;;4.32;1.40;;;23.50;66.70;;;;;;4955932;28;20050;-22
2022/06/04 09:56:37;;;;;;;1.83;1.73;;;23.50;66.50;;;;;;4970256;28;20142;-23
2022/06/04 09:59:24;;;;;;;1.30;1.20;;;23.60;66.60;;;;;;4955580;28;20472;-24
2022/06/04 10:02:19;;;;;;;1.55;1.45;;;23.60;66.30;;;;;;4957734;28;20051;-24
2022/06/04 10:04:47;;;;;;;1.40;1.30;;;23.60;66.20;;;;;;4957842;28;20122;-23
2022/06/04 10:07:18;;;;;;;2.67;1.48;;;23.60;66.40;;;;;;4959722;28;20628;-23
2022/06/04 10:09:56;;;;;;;3.45;1.50;;;23.60;66.70;;;;;;4989984;28;20051;-23
2022/06/04 10:15:31;;;;;;;1.42;1.33;;;23.60;66.30;;;;;;4959511;28;20057;-22
2022/06/04 10:18:04;;;;;;;;;;;23.70;66.50;;;;;;4943401;28;20057;-24
2022/06/04 10:20:30;;;;;;;3.03;1.60;;;23.70;66.30;;;;;;4960204;28;19922;-23
2022/06/04 10:22:56;;;;;;;3.08;1.70;;;23.80;67.00;;;;;;4975817;28;20078;-22
2022/06/04 10:25:26;;;;;;;7.18;1.10;;;23.80;66.30;;;;;;4973157;28;20145;-22
2022/06/04 10:28:10;;;;;;;1.55;1.45;;;23.80;66.10;;;;;;4972189;28;20515;-21
2022/06/04 10:30:39;;;;;;;1.70;1.27;;;23.70;65.80;;;;;;4957161;28;20060;-21
2022/06/04 10:33:30;;;;;;;1.92;1.50;;;23.70;66.10;;;;;;4972139;28;20073;-21
2022/06/04 10:36:02;;;;;;;1.65;1.40;;;23.80;66.10;;;;;;4986409;28;20476;-21
2022/06/04 10:38:37;;;;;;;1.48;1.38;;;23.80;66.20;;;;;;4976794;28;20074;-21
2022/06/04 10:41:12;;;;;;;1.75;1.38;;;23.90;65.50;;;;;;4975172;28;20051;-21
2022/06/04 10:43:56;;;;;;;1.50;1.10;;;23.90;65.50;;;;;;4972097;28;20039;-21
2022/06/04 10:46:37;;;;;;;1.67;1.45;;;23.80;65.40;;;;;;4975043;28;20050;-21
2022/06/04 10:49:27;;;;;;;1.45;1.35;;;23.80;65.60;;;;;;4969888;28;20074;-21
2022/06/04 10:51:55;;;;;;;1.40;1.30;;;23.80;65.60;;;;;;4964497;28;20530;-21
2022/06/04 10:54:52;;;;;;;1.50;1.40;;;23.80;65.50;;;;;;4972164;28;20071;-20
2022/06/04 10:57:24;;;;;;;2.42;1.40;;;23.80;66.10;;;;;;4966019;28;20085;-21
2022/06/04 11:00:31;;;;;;;2.33;1.35;;;23.80;66.00;;;;;;4971337;28;20053;-22
2022/06/04 11:02:58;;;;;;;1.95;1.40;;;23.80;65.60;;;;;;4931126;28;20062;-21
2022/06/04 11:05:26;;;;;;;1.30;1.20;;;23.80;65.40;;;;;;4964662;28;20508;-22
2022/06/04 11:08:11;;;;;;;2.63;1.27;;;23.80;65.40;;;;;;4972590;28;20526;-21
2022/06/04 11:10:43;;;;;;;1.40;1.17;;;23.80;65.50;;;;;;4971079;28;20046;-21
2022/06/04 11:13:23;;;;;;;1.38;1.27;;;23.70;65.50;;;;;;4971261;28;20418;-21
2022/06/04 11:16:03;;;;;;;2.45;1.23;;;23.80;65.50;;;;;;4971669;28;20453;-21
2022/06/04 11:18:39;;;;;;;1.42;1.23;;;23.80;65.50;;;;;;4971191;28;20051;-22
2022/06/04 11:21:22;;;;;;;1.10;1.10;;;23.80;65.20;;;;;;4971260;28;20058;-24
2022/06/04 11:23:54;;;;;;;1.67;1.00;;;23.70;65.40;;;;;;4971115;28;20468;-21
2022/06/04 11:26:38;;;;;;;1.45;1.30;;;23.80;65.50;;;;;;4971604;28;20272;-21
2022/06/04 11:29:03;;;;;;;1.45;1.35;;;23.80;65.50;;;;;;4971415;28;20439;-21
2022/06/04 11:31:41;;;;;;;1.40;1.33;;;23.80;65.00;;;;;;4964966;28;20046;-20
2022/06/04 11:34:16;;;;;;;1.73;1.25;;;23.80;65.10;;;;;;4966888;28;20492;-21
2022/06/04 11:37:06;;;;;;;1.65;1.23;;;23.80;65.20;;;;;;4968178;28;20067;-21
2022/06/04 11:39:41;;;;;;;0.80;0.80;;;23.80;65.10;;;;;;4965550;28;20051;-20
2022/06/04 11:42:19;;;;;;;0.95;0.95;;;23.80;65.10;;;;;;4963513;28;20039;-20
2022/06/04 11:45:19;;;;;;;1.05;1.05;;;23.80;65.10;;;;;;4966487;28;20055;-21
2022/06/04 11:48:13;;;;;;;0.90;0.90;;;23.70;65.20;;;;;;4968687;28;20102;-21
2022/06/04 11:50:50;;;;;;;0.93;0.93;;;23.80;65.10;;;;;;4973273;28;20044;-21
2022/06/04 11:53:22;;;;;;;1.00;1.00;;;23.80;65.00;;;;;;4967996;28;20050;-21
2022/06/04 11:56:14;;;;;;;1.95;1.02;;;23.80;64.80;;;;;;4971178;28;20066;-21
2022/06/04 11:58:55;;;;;;;1.10;1.10;;;23.80;64.80;;;;;;4967583;28;20549;-21
2022/06/04 12:01:35;;;;;;;1.00;1.00;;;23.80;65.00;;;;;;4972533;28;20057;-20
2022/06/04 12:04:29;;;;;;;2.75;1.13;;;23.80;65.00;;;;;;4971363;28;20045;-21
2022/06/04 12:07:11;;;;;;;0.77;0.77;;;23.80;65.10;;;;;;4970888;28;20141;-21
2022/06/04 12:09:55;;;;;;;1.10;1.10;;;23.80;65.20;;;;;;4971557;28;20279;-21
2022/06/04 12:12:25;;;;;;;0.85;0.85;;;23.80;65.30;;;;;;4971413;28;20078;-21
2022/06/04 12:14:55;;;;;;;1.30;1.20;;;23.70;65.30;;;;;;4971003;28;20039;-20
2022/06/04 12:17:26;;;;;;;0.85;0.85;;;23.80;65.30;;;;;;4974327;28;20054;-21
2022/06/04 12:25:38;;;;;;;1.23;0.95;;;23.80;65.10;;;;;;4974664;28;20045;-20
2022/06/04 12:28:18;;;;;;;0.90;0.90;;;23.80;65.10;;;;;;4977807;28;20047;-20
2022/06/04 12:30:46;;;;;;;0.80;0.80;;;23.90;65.30;;;;;;4971434;28;20058;-20
2022/06/04 12:33:41;;;;;;;0.90;0.90;;;23.90;65.10;;;;;;4973814;28;20055;-19
2022/06/04 12:36:10;;;;;;;1.20;1.10;;;23.90;65.20;;;;;;4956310;28;20603;-20
2022/06/04 12:38:40;;;;;;;1.10;1.10;;;23.90;65.20;;;;;;4974256;28;20038;-21
2022/06/04 12:41:14;;;;;;;0.90;0.90;;;23.90;65.40;;;;;;4975272;28;20085;-20
2022/06/04 12:43:48;;;;;;;1.85;0.70;;;23.90;65.90;;;;;;4973821;28;20051;-20
2022/06/04 12:46:21;;;;;;;0.88;0.88;;;23.90;65.30;;;;;;4972727;28;20058;-26
2022/06/04 12:49:05;;;;;;;0.77;0.77;;;23.90;65.30;;;;;;4975058;28;20077;-25
2022/06/04 12:51:56;;;;;;;1.30;1.20;;;24.00;65.20;;;;;;4973055;28;20042;-23
2022/06/04 12:54:35;;;;;;;1.30;1.20;;;24.00;65.50;;;;;;4971190;28;20043;-24
2022/06/04 12:57:21;;;;;;;1.20;1.10;;;24.00;65.20;;;;;;4976752;28;20630;-23
2022/06/04 12:59:48;;;;;;;1.02;1.02;;;24.00;65.30;;;;;;4970508;28;20039;-23
2022/06/04 13:02:34;;;;;;;0.90;0.90;;;24.00;65.00;;;;;;4974417;28;20043;-25
2022/06/04 13:05:27;;;;;;;1.00;1.00;;;24.00;65.20;;;;;;4968626;28;20093;-24
2022/06/04 13:08:06;;;;;;;0.90;0.90;;;24.00;65.00;;;;;;4973538;28;20051;-23
2022/06/04 13:10:53;;;;;;;1.00;1.00;;;24.10;65.00;;;;;;4970252;28;20042;-26
2022/06/04 13:14:00;;;;;;;1.30;1.20;;;24.10;64.80;;;;;;4974578;28;20039;-33
2022/06/04 13:16:28;;;;;;;1.05;1.05;;;24.10;64.70;;;;;;4967537;28;20577;-24
2022/06/04 13:19:09;;;;;;;1.15;1.15;;;24.00;64.70;;;;;;4977952;28;20042;-26
2022/06/04 13:21:39;;;;;;;1.00;1.00;;;24.10;64.60;;;;;;4969583;28;20058;-26
2022/06/04 13:24:12;;;;;;;2.00;1.00;;;24.10;64.50;;;;;;4971374;28;20071;-23
2022/06/04 13:26:52;;;;;;;0.87;0.87;;;24.10;64.50;;;;;;4974871;28;20049;-23
2022/06/04 13:29:28;;;;;;;0.80;0.80;;;24.10;64.50;;;;;;4976390;28;20130;-24